Time;durP1;ratioP1;P1;durP2;ratioP2;P2;SDS_P1;SDS_P2;PMS_P1;PMS_P2;Temp;Humidity;BMP_temperature;BMP_pressure;BME280_temperature;BME280_humidity;BME280_pressure;Samples;Min_cycle;Max_cycle;Signal;HPM_P1;HPM_P2
2021/08/05 12:10:15;;;;;;;3.88;1.38;;;;;;;;;;5095424;28;20400;-84
2021/08/05 12:12:42;;;;;;;5.07;1.30;;;;;;;;;;5081361;28;20030;-83
2021/08/05 12:15:09;;;;;;;3.50;1.70;;;;;;;;;;5076494;28;20051;-84
2021/08/05 12:17:36;;;;;;;3.50;1.40;;;;;;;;;;5069455;28;20355;-83
2021/08/05 12:20:04;;;;;;;3.83;1.40;;;;;;;;;;5073419;28;20024;-83
2021/08/05 12:22:38;;;;;;;4.75;1.23;;;;;;;;;;5080449;28;20394;-82
2021/08/05 12:25:07;;;;;;;2.63;1.27;;;;;;;;;;5072530;28;20052;-82
2021/08/05 12:27:34;;;;;;;4.63;1.50;;;;;;;;;;5081894;28;20032;-84
2021/08/05 12:30:09;;;;;;;5.05;1.15;;;;;;;;;;5079442;28;20036;-84
2021/08/05 12:32:36;;;;;;;8.10;1.77;;;;;;;;;;5081452;28;20034;-82
2021/08/05 12:35:02;;;;;;;2.03;1.20;;;;;;;;;;5079820;28;20039;-84
2021/08/05 12:37:31;;;;;;;4.03;1.40;;;;;;;;;;5074229;28;20031;-84
2021/08/05 12:40:06;;;;;;;2.72;0.93;;;;;;;;;;5072533;28;20048;-82
2021/08/05 12:42:32;;;;;;;8.18;1.50;;;;;;;;;;5077177;28;20112;-83
2021/08/05 12:44:59;;;;;;;2.67;1.17;;;;;;;;;;5076866;28;20056;-82
2021/08/05 12:47:25;;;;;;;4.35;1.20;;;;;;;;;;5068823;28;20482;-82
2021/08/05 12:49:50;;;;;;;5.97;1.30;;;;;;;;;;5084339;28;20043;-82
2021/08/05 12:52:17;;;;;;;3.55;1.33;;;;;;;;;;5077379;28;20028;-82
2021/08/05 12:54:54;;;;;;;3.83;1.08;;;;;;;;;;5067257;28;20110;-81
2021/08/05 12:57:20;;;;;;;6.78;1.35;;;;;;;;;;5060389;28;20048;-82
2021/08/05 12:59:47;;;;;;;7.00;1.30;;;;;;;;;;5069359;28;20025;-83
2021/08/05 13:02:15;;;;;;;3.50;1.30;;;;;;;;;;5083442;28;20085;-84
2021/08/05 13:04:45;;;;;;;5.68;1.38;;;;;;;;;;5081237;28;20028;-83
2021/08/05 13:07:14;;;;;;;2.13;1.25;;;;;;;;;;5077350;28;20028;-82
2021/08/05 13:09:53;;;;;;;5.68;1.60;;;;;;;;;;5076091;28;20061;-83
2021/08/05 13:14:37;;;;;;;2.50;1.20;;;;;;;;;;5090233;27;20401;-83
2021/08/05 13:17:03;;;;;;;2.67;1.20;;;;;;;;;;5090374;28;20044;-83
2021/08/05 13:19:28;;;;;;;5.85;1.50;;;;;;;;;;5093272;28;20476;-83
2021/08/05 13:21:55;;;;;;;5.30;1.50;;;;;;;;;;5092104;28;20028;-84
2021/08/05 13:24:22;;;;;;;9.23;1.30;;;;;;;;;;5091580;28;20151;-84
2021/08/05 13:26:49;;;;;;;2.53;1.30;;;;;;;;;;5089836;28;20059;-84
2021/08/05 13:29:35;;;;;;;4.20;1.20;;;;;;;;;;5089750;28;20042;-82
2021/08/05 13:32:01;;;;;;;3.80;1.27;;;;;;;;;;5084674;28;20024;-82
2021/08/05 13:34:27;;;;;;;4.43;1.20;;;;;;;;;;5089535;28;20127;-82
2021/08/05 13:36:52;;;;;;;6.03;1.40;;;;;;;;;;5088091;28;20123;-84
2021/08/05 13:39:19;;;;;;;3.08;1.15;;;;;;;;;;5089722;28;20032;-82
2021/08/05 13:41:44;;;;;;;4.80;1.35;;;;;;;;;;5089469;28;20393;-83
2021/08/05 13:44:10;;;;;;;4.40;1.30;;;;;;;;;;5083948;28;20028;-83
2021/08/05 13:46:36;;;;;;;2.42;1.10;;;;;;;;;;5065083;28;20048;-83
2021/08/05 13:49:02;;;;;;;2.63;1.27;;;;;;;;;;5062939;28;20032;-84
2021/08/05 13:51:28;;;;;;;4.97;1.02;;;;;;;;;;5071641;28;20116;-83
2021/08/05 13:53:53;;;;;;;2.75;1.15;;;;;;;;;;5068547;28;20174;-85
2021/08/05 13:56:19;;;;;;;2.78;1.40;;;;;;;;;;5059784;28;20174;-83
2021/08/05 13:58:45;;;;;;;2.75;1.35;;;;;;;;;;5064072;28;20134;-84
2021/08/05 14:01:10;;;;;;;4.10;1.25;;;;;;;;;;5049254;28;20033;-82
2021/08/05 14:03:36;;;;;;;4.00;1.45;;;;;;;;;;5064944;28;20038;-82
2021/08/05 14:06:02;;;;;;;3.60;1.13;;;;;;;;;;5052731;28;20031;-84
2021/08/05 14:08:28;;;;;;;4.93;1.00;;;;;;;;;;5060705;28;20041;-82
2021/08/05 14:10:56;;;;;;;4.40;1.25;;;;;;;;;;5066565;28;20033;-82
2021/08/05 14:13:22;;;;;;;4.30;1.20;;;;;;;;;;5057622;28;20156;-82
2021/08/05 14:15:48;;;;;;;3.92;1.10;;;;;;;;;;5071451;28;20179;-82
2021/08/05 14:18:13;;;;;;;3.28;1.30;;;;;;;;;;5070404;28;20090;-82
2021/08/05 14:20:42;;;;;;;4.57;1.38;;;;;;;;;;5059659;28;20071;-83
2021/08/05 14:23:08;;;;;;;3.97;1.48;;;;;;;;;;5069342;28;20032;-83
2021/08/05 14:25:33;;;;;;;8.75;1.70;;;;;;;;;;5056591;28;20035;-80
2021/08/05 14:27:59;;;;;;;4.97;1.45;;;;;;;;;;5055566;28;20068;-83
2021/08/05 14:30:24;;;;;;;10.15;1.80;;;;;;;;;;4948160;28;20060;-83
2021/08/05 14:32:50;;;;;;;6.05;1.90;;;;;;;;;;4994680;28;20052;-84
2021/08/05 14:35:16;;;;;;;4.95;1.60;;;;;;;;;;5049154;28;20049;-84
2021/08/05 14:37:41;;;;;;;5.63;1.48;;;;;;;;;;5083845;28;20056;-84
2021/08/05 14:40:07;;;;;;;4.05;1.40;;;;;;;;;;5038632;28;20507;-85
2021/08/05 14:42:33;;;;;;;7.05;1.40;;;;;;;;;;5034820;28;20036;-84
2021/08/05 14:44:59;;;;;;;10.75;1.95;;;;;;;;;;5042765;28;20037;-85
2021/08/05 14:47:25;;;;;;;9.73;2.08;;;;;;;;;;5039422;28;20028;-85
2021/08/05 14:49:51;;;;;;;8.57;2.22;;;;;;;;;;5034500;28;20033;-83
2021/08/05 14:52:16;;;;;;;9.55;2.15;;;;;;;;;;5033892;28;20387;-85
2021/08/05 14:54:43;;;;;;;5.22;2.00;;;;;;;;;;5034376;28;20041;-84
2021/08/05 14:57:08;;;;;;;3.05;1.67;;;;;;;;;;5039082;28;20056;-83
2021/08/05 14:59:35;;;;;;;6.38;1.90;;;;;;;;;;5039594;28;20065;-84
2021/08/05 15:02:12;;;;;;;8.05;1.95;;;;;;;;;;5035018;28;20037;-83
2021/08/05 15:04:38;;;;;;;6.03;1.80;;;;;;;;;;5006229;28;20064;-86
2021/08/05 15:07:03;;;;;;;8.95;2.10;;;;;;;;;;5034456;28;20026;-85
2021/08/05 15:09:29;;;;;;;5.30;2.33;;;;;;;;;;5033562;28;20029;-84
2021/08/05 15:11:54;;;;;;;5.03;1.73;;;;;;;;;;5034358;28;20040;-84
2021/08/05 15:14:21;;;;;;;9.65;2.00;;;;;;;;;;5039156;28;20519;-86
2021/08/05 15:16:50;;;;;;;6.15;1.83;;;;;;;;;;5046109;28;20029;-86
2021/08/05 15:19:16;;;;;;;10.63;2.15;;;;;;;;;;5046856;28;20044;-84
2021/08/05 15:21:41;;;;;;;8.13;2.03;;;;;;;;;;4949417;28;20056;-84
2021/08/05 15:24:07;;;;;;;11.60;2.28;;;;;;;;;;5034173;28;20025;-87
2021/08/05 15:26:34;;;;;;;7.60;2.20;;;;;;;;;;5003947;28;20061;-84
2021/08/05 15:29:00;;;;;;;7.78;2.40;;;;;;;;;;5037887;28;20021;-85
2021/08/05 15:31:25;;;;;;;10.65;2.40;;;;;;;;;;5041017;28;20420;-85
2021/08/05 15:33:56;;;;;;;7.68;2.10;;;;;;;;;;5048693;28;20041;-86
2021/08/05 15:36:23;;;;;;;8.15;2.45;;;;;;;;;;5046283;28;20487;-87
2021/08/05 15:38:49;;;;;;;10.07;2.50;;;;;;;;;;5043010;28;20029;-87
2021/08/05 15:41:14;;;;;;;9.25;2.22;;;;;;;;;;5035362;28;20051;-87
2021/08/05 15:43:43;;;;;;;7.78;2.33;;;;;;;;;;5035022;28;20368;-87
2021/08/05 15:46:08;;;;;;;4.82;2.00;;;;;;;;;;5033961;28;20021;-83
2021/08/05 15:48:34;;;;;;;10.90;2.53;;;;;;;;;;5036521;28;20033;-86
2021/08/05 15:51:01;;;;;;;10.13;2.13;;;;;;;;;;5035455;28;20041;-85
2021/08/05 15:53:26;;;;;;;7.40;2.00;;;;;;;;;;5033783;28;20121;-86
2021/08/05 15:55:53;;;;;;;14.68;2.55;;;;;;;;;;5036932;28;20057;-87
2021/08/05 15:58:18;;;;;;;11.30;2.50;;;;;;;;;;5032921;28;20561;-81
2021/08/05 16:00:44;;;;;;;9.70;2.80;;;;;;;;;;5041748;28;20032;-83
2021/08/05 16:03:13;;;;;;;6.20;2.22;;;;;;;;;;5044507;28;20040;-81
2021/08/05 16:05:57;;;;;;;6.97;2.03;;;;;;;;;;5039559;28;20060;-82
2021/08/05 16:08:23;;;;;;;7.32;2.35;;;;;;;;;;5033454;28;20037;-82
2021/08/05 16:10:48;;;;;;;9.60;2.80;;;;;;;;;;5035187;28;20095;-81
2021/08/05 16:13:16;;;;;;;10.38;2.85;;;;;;;;;;5036002;28;20051;-81
2021/08/05 16:15:43;;;;;;;11.45;2.45;;;;;;;;;;5037426;28;20034;-81
2021/08/05 16:18:12;;;;;;;8.73;2.17;;;;;;;;;;5032748;28;20549;-82
2021/08/05 16:20:41;;;;;;;10.80;2.60;;;;;;;;;;5032509;28;20056;-82
2021/08/05 16:23:09;;;;;;;7.93;2.53;;;;;;;;;;5062859;23;20077;-84
2021/08/05 16:25:42;;;;;;;6.47;2.25;;;;;;;;;;4993327;28;20057;-83
2021/08/05 16:30:37;;;;;;;16.98;3.22;;;;;;;;;;5020676;23;20152;-81
2021/08/05 16:33:30;;;;;;;12.82;2.90;;;;;;;;;;5018602;23;20042;-86
2021/08/05 16:35:58;;;;;;;14.30;2.47;;;;;;;;;;4955408;29;20047;-81
2021/08/05 16:38:24;;;;;;;9.65;2.90;;;;;;;;;;4957693;29;20490;-82
2021/08/05 16:40:55;;;;;;;5.18;2.38;;;;;;;;;;4957702;28;20019;-82
2021/08/05 16:43:23;;;;;;;10.13;1.90;;;;;;;;;;4955002;28;20085;-81
2021/08/05 16:45:49;;;;;;;12.65;3.03;;;;;;;;;;4955159;28;20037;-82
2021/08/05 16:48:15;;;;;;;8.98;2.35;;;;;;;;;;4961966;28;20019;-81
2021/08/05 16:50:41;;;;;;;5.85;2.10;;;;;;;;;;4962208;28;20027;-83
2021/08/05 16:53:06;;;;;;;7.35;2.55;;;;;;;;;;4962610;28;20466;-82
2021/08/05 16:55:33;;;;;;;15.45;3.08;;;;;;;;;;4966556;28;20031;-82
2021/08/05 16:57:59;;;;;;;14.60;3.70;;;;;;;;;;4974378;28;20042;-83
2021/08/05 17:00:26;;;;;;;17.38;4.38;;;;;;;;;;4969223;28;20121;-87
2021/08/05 17:02:52;;;;;;;15.10;3.78;;;;;;;;;;4958453;28;20089;-84
2021/08/05 17:05:19;;;;;;;117.57;64.78;;;;;;;;;;4968311;28;20098;-84
2021/08/05 17:07:45;;;;;;;11.50;7.20;;;;;;;;;;4958164;28;20042;-82
2021/08/05 17:10:11;;;;;;;10.90;4.00;;;;;;;;;;4968854;28;20042;-85
2021/08/05 17:12:38;;;;;;;7.15;3.50;;;;;;;;;;4961527;28;20042;-80
2021/08/05 17:15:04;;;;;;;11.52;3.20;;;;;;;;;;4976808;28;20062;-82
2021/08/05 17:17:29;;;;;;;9.25;3.10;;;;;;;;;;4971833;28;20544;-83
2021/08/05 17:19:55;;;;;;;8.48;2.83;;;;;;;;;;4957585;28;20152;-83
2021/08/05 17:22:25;;;;;;;9.10;3.00;;;;;;;;;;4983958;28;20169;-83
2021/08/05 17:24:51;;;;;;;8.13;2.97;;;;;;;;;;4971091;28;20428;-83
2021/08/05 17:27:16;;;;;;;6.20;2.33;;;;;;;;;;4984454;28;20057;-85
2021/08/05 17:29:42;;;;;;;8.95;2.80;;;;;;;;;;4964117;28;20039;-86
2021/08/05 17:32:08;;;;;;;9.75;2.70;;;;;;;;;;4945816;28;20086;-87
2021/08/05 17:34:34;;;;;;;10.45;3.15;;;;;;;;;;4959956;28;20070;-87
2021/08/05 17:37:00;;;;;;;9.57;3.00;;;;;;;;;;4963704;28;20035;-87
2021/08/05 17:39:25;;;;;;;8.25;2.72;;;;;;;;;;4964218;28;20030;-85
2021/08/05 17:41:51;;;;;;;6.05;2.85;;;;;;;;;;4961480;28;20543;-86
2021/08/05 17:44:17;;;;;;;5.22;2.63;;;;;;;;;;4964316;28;20035;-85
2021/08/05 17:46:42;;;;;;;12.82;2.97;;;;;;;;;;4968748;28;20058;-85
2021/08/05 17:49:09;;;;;;;7.97;3.08;;;;;;;;;;4968156;28;20038;-88
2021/08/05 17:51:35;;;;;;;7.90;3.28;;;;;;;;;;4975443;28;20030;-84
2021/08/05 17:54:01;;;;;;;7.15;2.97;;;;;;;;;;4944660;29;20073;-89
2021/08/05 17:56:27;;;;;;;5.18;3.25;;;;;;;;;;4953827;28;20405;-84
2021/08/05 17:58:53;;;;;;;7.82;3.45;;;;;;;;;;4962361;28;20070;-87
2021/08/05 18:01:18;;;;;;;9.32;4.18;;;;;;;;;;4971504;28;20030;-87
2021/08/05 18:03:44;;;;;;;5.88;3.13;;;;;;;;;;4977435;28;20042;-88
2021/08/05 18:06:13;;;;;;;6.50;3.30;;;;;;;;;;4961500;29;20091;-87
2021/08/05 18:08:39;;;;;;;7.03;3.05;;;;;;;;;;4966293;28;20071;-88
2021/08/05 18:11:05;;;;;;;6.65;3.03;;;;;;;;;;4971186;28;20547;-91
2021/08/05 18:13:32;;;;;;;10.55;2.90;;;;;;;;;;4965340;29;20074;-90
2021/08/05 18:15:57;;;;;;;10.40;3.10;;;;;;;;;;4943835;29;20486;-83
2021/08/05 18:18:23;;;;;;;5.55;2.85;;;;;;;;;;4968277;28;20138;-88
2021/08/05 18:20:49;;;;;;;6.53;2.60;;;;;;;;;;4963069;28;20059;-86
2021/08/05 18:23:17;;;;;;;10.90;3.08;;;;;;;;;;4972824;28;20082;-84
2021/08/05 18:25:43;;;;;;;6.60;2.85;;;;;;;;;;4958054;28;20039;-85
2021/08/05 18:28:09;;;;;;;6.00;2.90;;;;;;;;;;4946883;28;20500;-85
2021/08/05 18:30:35;;;;;;;6.10;2.90;;;;;;;;;;4961964;28;20047;-86
2021/08/05 18:33:01;;;;;;;6.07;3.00;;;;;;;;;;4971197;28;20039;-84
2021/08/05 18:35:26;;;;;;;3.90;2.85;;;;;;;;;;4951562;29;20039;-87
2021/08/05 18:37:52;;;;;;;11.13;3.17;;;;;;;;;;4965770;28;20126;-85
2021/08/05 18:40:18;;;;;;;6.38;2.95;;;;;;;;;;4955070;28;20027;-83
2021/08/05 18:42:43;;;;;;;6.57;3.15;;;;;;;;;;4955933;28;20058;-79
2021/08/05 18:45:09;;;;;;;7.82;3.03;;;;;;;;;;4959478;28;20065;-75
2021/08/05 18:47:34;;;;;;;9.32;2.70;;;;;;;;;;4970155;28;20030;-80
2021/08/05 18:50:00;;;;;;;7.70;3.20;;;;;;;;;;4960636;28;20043;-83
2021/08/05 18:52:28;;;;;;;6.78;3.15;;;;;;;;;;4956606;28;20134;-80
2021/08/05 18:54:54;;;;;;;7.38;3.35;;;;;;;;;;4962608;28;20043;-83
2021/08/05 18:57:29;;;;;;;7.50;2.92;;;;;;;;;;4972102;28;20085;-85
2021/08/05 19:00:01;;;;;;;10.57;3.53;;;;;;;;;;4980894;28;20517;-84
2021/08/05 19:02:28;;;;;;;6.50;3.30;;;;;;;;;;4959621;28;20027;-85
2021/08/05 19:05:00;;;;;;;8.13;3.30;;;;;;;;;;4969465;28;20035;-84
2021/08/05 19:07:30;;;;;;;6.97;2.90;;;;;;;;;;4943149;29;20039;-83
2021/08/05 19:10:02;;;;;;;9.65;3.38;;;;;;;;;;4963964;28;20130;-84
2021/08/05 19:12:29;;;;;;;10.52;3.17;;;;;;;;;;4972292;28;20057;-83
2021/08/05 19:14:54;;;;;;;6.78;3.28;;;;;;;;;;4971805;28;20179;-84
2021/08/05 19:17:20;;;;;;;8.15;3.33;;;;;;;;;;4995810;23;20109;-80
2021/08/05 19:19:47;;;;;;;6.53;3.17;;;;;;;;;;4997426;28;20038;-81
2021/08/05 19:22:12;;;;;;;9.75;3.38;;;;;;;;;;4994395;28;20030;-82
2021/08/05 19:24:42;;;;;;;8.45;3.60;;;;;;;;;;4990819;28;20060;-83
2021/08/05 19:27:08;;;;;;;6.03;3.42;;;;;;;;;;4999155;28;20131;-81
2021/08/05 19:29:34;;;;;;;10.70;3.35;;;;;;;;;;5014122;28;20492;-84
2021/08/05 19:31:59;;;;;;;6.35;3.40;;;;;;;;;;4996994;28;20114;-82
2021/08/05 19:34:28;;;;;;;8.45;3.22;;;;;;;;;;4994415;28;20078;-85
2021/08/05 19:36:53;;;;;;;7.07;2.50;;;;;;;;;;5002152;28;20030;-82
2021/08/05 19:39:20;;;;;;;5.22;2.70;;;;;;;;;;4996457;28;20041;-82
2021/08/05 19:41:55;;;;;;;4.75;2.80;;;;;;;;;;5001973;28;20034;-82
2021/08/05 19:44:20;;;;;;;5.55;2.38;;;;;;;;;;5028063;23;20511;-81
2021/08/05 19:46:55;;;;;;;8.27;2.70;;;;;;;;;;5019872;28;20060;-81
2021/08/05 19:49:23;;;;;;;6.72;2.80;;;;;;;;;;5022914;28;20034;-80
2021/08/05 19:51:49;;;;;;;4.10;2.40;;;;;;;;;;5031778;28;20051;-81
2021/08/05 19:54:15;;;;;;;6.10;3.20;;;;;;;;;;5027781;28;20454;-80
2021/08/05 19:56:41;;;;;;;4.20;2.55;;;;;;;;;;5026224;28;20090;-78
2021/08/05 19:59:07;;;;;;;9.75;3.22;;;;;;;;;;5018152;28;20056;-78
2021/08/05 20:01:33;;;;;;;6.75;3.30;;;;;;;;;;5014548;28;20448;-79
2021/08/05 20:04:00;;;;;;;5.90;3.13;;;;;;;;;;5029094;28;20040;-83
2021/08/05 20:06:27;;;;;;;8.52;3.53;;;;;;;;;;5028763;28;20063;-81
2021/08/05 20:08:53;;;;;;;6.25;2.92;;;;;;;;;;5027606;28;20037;-83
2021/08/05 20:11:22;;;;;;;9.80;3.00;;;;;;;;;;5024669;28;20033;-85
2021/08/05 20:13:47;;;;;;;6.97;3.42;;;;;;;;;;5030740;28;20129;-87
2021/08/05 20:16:13;;;;;;;7.55;3.35;;;;;;;;;;5024905;28;20060;-84
2021/08/05 20:18:39;;;;;;;6.72;3.25;;;;;;;;;;5028942;28;20026;-83
2021/08/05 20:21:08;;;;;;;5.60;3.50;;;;;;;;;;5013651;28;20033;-85
2021/08/05 20:23:34;;;;;;;6.38;3.38;;;;;;;;;;5021427;28;20040;-83
2021/08/05 20:25:59;;;;;;;7.32;3.30;;;;;;;;;;5012241;28;20025;-81
2021/08/05 20:28:25;;;;;;;6.93;3.33;;;;;;;;;;4907221;28;20049;-81
2021/08/05 20:30:50;;;;;;;7.55;3.53;;;;;;;;;;4992452;28;20136;-84
2021/08/05 20:33:19;;;;;;;6.97;3.65;;;;;;;;;;5020360;28;20127;-85
2021/08/05 20:35:44;;;;;;;7.00;3.47;;;;;;;;;;5014027;28;20049;-83
2021/08/05 20:38:10;;;;;;;7.93;3.47;;;;;;;;;;5027464;28;20060;-82
2021/08/05 20:40:36;;;;;;;7.07;3.70;;;;;;;;;;5022104;28;20033;-81
2021/08/05 20:43:02;;;;;;;15.85;3.72;;;;;;;;;;5013116;28;20018;-80
2021/08/05 20:45:31;;;;;;;6.75;3.40;;;;;;;;;;5025079;28;20084;-84
2021/08/05 20:48:18;;;;;;;7.28;3.25;;;;;;;;;;5010645;28;20026;-85
2021/08/05 20:50:57;;;;;;;11.65;3.78;;;;;;;;;;5017031;28;20079;-82
2021/08/05 20:53:23;;;;;;;5.55;3.25;;;;;;;;;;5008657;28;20069;-82
2021/08/05 20:58:26;;;;;;;6.93;3.50;;;;;;;;;;4989605;23;20069;-82
2021/08/05 21:00:51;;;;;;;9.63;3.85;;;;;;;;;;4995002;28;20037;-83
2021/08/05 21:03:17;;;;;;;9.52;3.65;;;;;;;;;;4976917;28;20102;-82
2021/08/05 21:05:42;;;;;;;7.47;3.88;;;;;;;;;;4974754;28;20497;-82
2021/08/05 21:08:08;;;;;;;6.68;3.42;;;;;;;;;;4978341;28;20104;-84
2021/08/05 21:10:33;;;;;;;8.85;3.65;;;;;;;;;;4973529;28;20501;-82
2021/08/05 21:13:02;;;;;;;8.38;3.70;;;;;;;;;;4972406;28;20065;-84
2021/08/05 21:15:28;;;;;;;9.82;3.75;;;;;;;;;;4972998;28;20030;-83
2021/08/05 21:17:53;;;;;;;7.53;3.85;;;;;;;;;;4973146;28;20100;-83
2021/08/05 21:20:19;;;;;;;7.50;3.65;;;;;;;;;;4973569;28;20032;-84
2021/08/05 21:22:45;;;;;;;6.63;3.75;;;;;;;;;;4982113;28;20484;-82
2021/08/05 21:25:11;;;;;;;12.50;3.60;;;;;;;;;;4978424;28;20450;-84
2021/08/05 21:27:37;;;;;;;7.00;3.58;;;;;;;;;;4975105;28;20067;-83
2021/08/05 21:30:03;;;;;;;8.43;3.35;;;;;;;;;;4974150;28;20500;-83
2021/08/05 21:32:28;;;;;;;8.82;3.63;;;;;;;;;;4973167;28;20039;-84
2021/08/05 21:34:56;;;;;;;5.82;3.08;;;;;;;;;;4975076;28;20038;-84
2021/08/05 21:37:22;;;;;;;6.10;3.35;;;;;;;;;;4977224;28;20077;-83
2021/08/05 21:39:48;;;;;;;7.35;3.35;;;;;;;;;;4984110;28;20042;-84
2021/08/05 21:42:13;;;;;;;4.50;3.30;;;;;;;;;;4980457;28;20030;-83
2021/08/05 21:44:39;;;;;;;12.63;3.40;;;;;;;;;;4976670;28;20070;-84
2021/08/05 21:47:04;;;;;;;8.77;3.70;;;;;;;;;;4976003;28;20031;-84
2021/08/05 21:49:30;;;;;;;7.60;3.28;;;;;;;;;;4977218;28;20038;-84
2021/08/05 21:51:56;;;;;;;7.45;3.72;;;;;;;;;;4977181;28;20041;-84
2021/08/05 21:54:21;;;;;;;4.78;3.50;;;;;;;;;;4977246;28;20047;-84
2021/08/05 21:56:47;;;;;;;8.43;3.53;;;;;;;;;;4977911;28;20081;-83
2021/08/05 21:59:12;;;;;;;9.52;3.85;;;;;;;;;;4976012;28;20055;-83
2021/08/05 22:01:41;;;;;;;5.63;3.08;;;;;;;;;;4977073;28;20046;-83
2021/08/05 22:04:06;;;;;;;6.28;3.58;;;;;;;;;;4977058;28;20520;-83
2021/08/05 22:06:32;;;;;;;5.35;3.13;;;;;;;;;;4977668;28;20035;-84
2021/08/05 22:08:58;;;;;;;7.13;3.72;;;;;;;;;;4977838;28;20027;-84
2021/08/05 22:11:24;;;;;;;6.57;3.58;;;;;;;;;;4977090;28;20060;-86
2021/08/05 22:13:49;;;;;;;6.32;4.15;;;;;;;;;;4977307;28;20479;-83
2021/08/05 22:16:15;;;;;;;7.13;3.45;;;;;;;;;;4975873;28;20061;-83
2021/08/05 22:18:40;;;;;;;9.60;3.63;;;;;;;;;;4992164;28;20053;-82
2021/08/05 22:21:06;;;;;;;5.35;3.10;;;;;;;;;;4976996;28;20055;-82
2021/08/05 22:23:32;;;;;;;7.18;2.88;;;;;;;;;;4978150;28;20027;-83
2021/08/05 22:25:58;;;;;;;5.90;2.38;;;;;;;;;;4978292;28;20031;-82
2021/08/05 22:28:23;;;;;;;8.18;2.88;;;;;;;;;;4978976;28;20027;-81
2021/08/05 22:30:49;;;;;;;9.30;3.13;;;;;;;;;;4989135;28;20037;-80
2021/08/05 22:33:15;;;;;;;6.03;3.00;;;;;;;;;;4996577;28;20122;-81
2021/08/05 22:35:40;;;;;;;8.00;2.95;;;;;;;;;;4982077;28;20094;-81
